sensor_id;sensor_type;location;lat;lon;timestamp;P1;durP1;ratioP1;P2;durP2;ratioP2
8312;SDS011;4194;43.408;24.626;2023-01-08T00:01:25;20.70;;;11.53;;
8312;SDS011;4194;43.408;24.626;2023-01-08T00:03:50;18.80;;;11.30;;
8312;SDS011;4194;43.408;24.626;2023-01-08T00:06:17;15.83;;;10.47;;
8312;SDS011;4194;43.408;24.626;2023-01-08T00:08:45;24.57;;;12.83;;
8312;SDS011;4194;43.408;24.626;2023-01-08T00:11:11;23.73;;;14.93;;
8312;SDS011;4194;43.408;24.626;2023-01-08T00:13:37;22.33;;;14.43;;
8312;SDS011;4194;43.408;24.626;2023-01-08T00:16:04;21.30;;;13.67;;
8312;SDS011;4194;43.408;24.626;2023-01-08T00:18:32;24.33;;;13.47;;
8312;SDS011;4194;43.408;24.626;2023-01-08T00:20:57;21.37;;;13.23;;
8312;SDS011;4194;43.408;24.626;2023-01-08T00:23:23;25.63;;;13.57;;
8312;SDS011;4194;43.408;24.626;2023-01-08T00:25:49;22.17;;;12.30;;
8312;SDS011;4194;43.408;24.626;2023-01-08T00:28:15;24.93;;;15.30;;
8312;SDS011;4194;43.408;24.626;2023-01-08T00:30:41;26.63;;;16.53;;
8312;SDS011;4194;43.408;24.626;2023-01-08T00:33:07;30.07;;;15.47;;
8312;SDS011;4194;43.408;24.626;2023-01-08T00:35:33;27.73;;;15.93;;
8312;SDS011;4194;43.408;24.626;2023-01-08T00:37:58;27.33;;;17.07;;
8312;SDS011;4194;43.408;24.626;2023-01-08T00:40:24;34.17;;;19.20;;
8312;SDS011;4194;43.408;24.626;2023-01-08T00:42:50;32.67;;;19.07;;
8312;SDS011;4194;43.408;24.626;2023-01-08T00:45:15;31.30;;;17.03;;
8312;SDS011;4194;43.408;24.626;2023-01-08T00:47:41;32.23;;;18.70;;
8312;SDS011;4194;43.408;24.626;2023-01-08T00:50:07;35.73;;;17.10;;
8312;SDS011;4194;43.408;24.626;2023-01-08T00:52:33;29.03;;;16.83;;
8312;SDS011;4194;43.408;24.626;2023-01-08T00:54:59;25.73;;;15.00;;
8312;SDS011;4194;43.408;24.626;2023-01-08T00:57:24;25.87;;;15.60;;
8312;SDS011;4194;43.408;24.626;2023-01-08T00:59:50;19.30;;;13.37;;
8312;SDS011;4194;43.408;24.626;2023-01-08T01:02:16;20.97;;;13.10;;
8312;SDS011;4194;43.408;24.626;2023-01-08T01:04:42;20.83;;;12.50;;
8312;SDS011;4194;43.408;24.626;2023-01-08T01:07:07;21.80;;;11.87;;
8312;SDS011;4194;43.408;24.626;2023-01-08T01:09:33;21.10;;;12.50;;
8312;SDS011;4194;43.408;24.626;2023-01-08T01:11:58;25.03;;;13.33;;
8312;SDS011;4194;43.408;24.626;2023-01-08T01:14:24;18.97;;;11.23;;
8312;SDS011;4194;43.408;24.626;2023-01-08T01:16:50;21.10;;;11.53;;
8312;SDS011;4194;43.408;24.626;2023-01-08T01:19:16;22.40;;;12.00;;
8312;SDS011;4194;43.408;24.626;2023-01-08T01:21:42;28.70;;;14.37;;
8312;SDS011;4194;43.408;24.626;2023-01-08T01:24:09;26.43;;;14.13;;
8312;SDS011;4194;43.408;24.626;2023-01-08T01:26:36;27.87;;;14.27;;
8312;SDS011;4194;43.408;24.626;2023-01-08T01:29:02;29.25;;;18.15;;
8312;SDS011;4194;43.408;24.626;2023-01-08T01:31:29;32.70;;;17.67;;
8312;SDS011;4194;43.408;24.626;2023-01-08T01:33:55;29.13;;;15.63;;
8312;SDS011;4194;43.408;24.626;2023-01-08T01:36:21;25.00;;;15.10;;
8312;SDS011;4194;43.408;24.626;2023-01-08T01:38:48;28.70;;;15.67;;
8312;SDS011;4194;43.408;24.626;2023-01-08T01:41:26;28.53;;;15.93;;
8312;SDS011;4194;43.408;24.626;2023-01-08T01:43:56;32.80;;;16.87;;
8312;SDS011;4194;43.408;24.626;2023-01-08T01:49:09;28.80;;;15.47;;
8312;SDS011;4194;43.408;24.626;2023-01-08T01:51:38;27.50;;;14.33;;
8312;SDS011;4194;43.408;24.626;2023-01-08T01:54:08;28.27;;;15.47;;
8312;SDS011;4194;43.408;24.626;2023-01-08T01:56:36;35.60;;;16.70;;
8312;SDS011;4194;43.408;24.626;2023-01-08T01:59:02;27.43;;;16.20;;
8312;SDS011;4194;43.408;24.626;2023-01-08T02:01:29;28.80;;;16.07;;
8312;SDS011;4194;43.408;24.626;2023-01-08T02:03:56;31.73;;;15.70;;
8312;SDS011;4194;43.408;24.626;2023-01-08T02:06:32;29.23;;;16.23;;
8312;SDS011;4194;43.408;24.626;2023-01-08T02:09:13;28.03;;;16.33;;
8312;SDS011;4194;43.408;24.626;2023-01-08T02:11:58;27.67;;;15.60;;
8312;SDS011;4194;43.408;24.626;2023-01-08T02:17:20;28.30;;;16.97;;
8312;SDS011;4194;43.408;24.626;2023-01-08T02:20:36;26.37;;;17.57;;
8312;SDS011;4194;43.408;24.626;2023-01-08T02:25:09;25.13;;;16.90;;
8312;SDS011;4194;43.408;24.626;2023-01-08T02:27:42;27.33;;;17.30;;
8312;SDS011;4194;43.408;24.626;2023-01-08T02:30:11;29.90;;;18.80;;
8312;SDS011;4194;43.408;24.626;2023-01-08T02:32:38;28.87;;;17.67;;
8312;SDS011;4194;43.408;24.626;2023-01-08T02:35:04;23.43;;;15.70;;
8312;SDS011;4194;43.408;24.626;2023-01-08T02:37:31;26.10;;;16.17;;
8312;SDS011;4194;43.408;24.626;2023-01-08T02:42:44;25.13;;;16.10;;
8312;SDS011;4194;43.408;24.626;2023-01-08T02:48:10;32.50;;;17.87;;
8312;SDS011;4194;43.408;24.626;2023-01-08T02:50:41;29.13;;;18.47;;
8312;SDS011;4194;43.408;24.626;2023-01-08T02:53:27;44.33;;;23.00;;
8312;SDS011;4194;43.408;24.626;2023-01-08T02:55:54;43.77;;;25.27;;
8312;SDS011;4194;43.408;24.626;2023-01-08T02:58:24;40.20;;;22.67;;
8312;SDS011;4194;43.408;24.626;2023-01-08T03:00:51;36.30;;;20.57;;
8312;SDS011;4194;43.408;24.626;2023-01-08T03:03:19;48.37;;;21.50;;
8312;SDS011;4194;43.408;24.626;2023-01-08T03:05:47;49.67;;;22.23;;
8312;SDS011;4194;43.408;24.626;2023-01-08T03:08:14;43.73;;;21.47;;
8312;SDS011;4194;43.408;24.626;2023-01-08T03:10:43;41.17;;;23.00;;
8312;SDS011;4194;43.408;24.626;2023-01-08T03:13:11;38.73;;;20.33;;
8312;SDS011;4194;43.408;24.626;2023-01-08T03:15:46;39.67;;;20.90;;
8312;SDS011;4194;43.408;24.626;2023-01-08T03:18:20;36.30;;;20.27;;
8312;SDS011;4194;43.408;24.626;2023-01-08T03:20:53;36.83;;;20.83;;
8312;SDS011;4194;43.408;24.626;2023-01-08T03:23:20;38.60;;;21.77;;
8312;SDS011;4194;43.408;24.626;2023-01-08T03:25:47;35.50;;;20.60;;
8312;SDS011;4194;43.408;24.626;2023-01-08T03:28:55;29.63;;;17.73;;
8312;SDS011;4194;43.408;24.626;2023-01-08T03:31:04;29.67;;;16.33;;
8312;SDS011;4194;43.408;24.626;2023-01-08T03:33:31;26.87;;;14.27;;
8312;SDS011;4194;43.408;24.626;2023-01-08T03:35:58;21.63;;;13.00;;
8312;SDS011;4194;43.408;24.626;2023-01-08T03:38:35;24.23;;;14.37;;
8312;SDS011;4194;43.408;24.626;2023-01-08T03:41:03;33.77;;;17.70;;
8312;SDS011;4194;43.408;24.626;2023-01-08T03:43:33;30.60;;;14.40;;
8312;SDS011;4194;43.408;24.626;2023-01-08T03:46:00;24.03;;;15.03;;
8312;SDS011;4194;43.408;24.626;2023-01-08T03:48:28;23.67;;;15.17;;
8312;SDS011;4194;43.408;24.626;2023-01-08T03:50:56;33.83;;;18.00;;
8312;SDS011;4194;43.408;24.626;2023-01-08T03:53:22;32.27;;;18.67;;
8312;SDS011;4194;43.408;24.626;2023-01-08T03:55:47;26.83;;;17.60;;
8312;SDS011;4194;43.408;24.626;2023-01-08T03:58:13;26.57;;;16.93;;
8312;SDS011;4194;43.408;24.626;2023-01-08T04:00:39;22.80;;;15.03;;
8312;SDS011;4194;43.408;24.626;2023-01-08T04:03:04;28.43;;;16.90;;
8312;SDS011;4194;43.408;24.626;2023-01-08T04:05:30;23.97;;;13.77;;
8312;SDS011;4194;43.408;24.626;2023-01-08T04:07:56;22.27;;;14.57;;
8312;SDS011;4194;43.408;24.626;2023-01-08T04:10:22;20.80;;;13.30;;
8312;SDS011;4194;43.408;24.626;2023-01-08T04:12:49;25.17;;;14.83;;
8312;SDS011;4194;43.408;24.626;2023-01-08T04:15:14;26.57;;;15.73;;
8312;SDS011;4194;43.408;24.626;2023-01-08T04:17:40;24.63;;;13.43;;
8312;SDS011;4194;43.408;24.626;2023-01-08T04:20:07;17.03;;;11.80;;
8312;SDS011;4194;43.408;24.626;2023-01-08T04:22:33;25.57;;;14.43;;
8312;SDS011;4194;43.408;24.626;2023-01-08T04:24:59;26.93;;;15.40;;
8312;SDS011;4194;43.408;24.626;2023-01-08T04:27:25;30.47;;;18.07;;
8312;SDS011;4194;43.408;24.626;2023-01-08T04:29:51;27.20;;;16.67;;
8312;SDS011;4194;43.408;24.626;2023-01-08T04:32:16;19.87;;;11.60;;
8312;SDS011;4194;43.408;24.626;2023-01-08T04:34:42;17.20;;;10.93;;
8312;SDS011;4194;43.408;24.626;2023-01-08T04:37:08;14.23;;;9.17;;
8312;SDS011;4194;43.408;24.626;2023-01-08T04:39:34;12.23;;;8.67;;
8312;SDS011;4194;43.408;24.626;2023-01-08T04:41:59;16.70;;;9.53;;
8312;SDS011;4194;43.408;24.626;2023-01-08T04:44:25;13.70;;;8.80;;
8312;SDS011;4194;43.408;24.626;2023-01-08T04:46:51;13.03;;;8.40;;
8312;SDS011;4194;43.408;24.626;2023-01-08T04:49:16;12.47;;;7.57;;
8312;SDS011;4194;43.408;24.626;2023-01-08T04:51:42;14.07;;;8.33;;
8312;SDS011;4194;43.408;24.626;2023-01-08T04:54:08;14.10;;;9.03;;
8312;SDS011;4194;43.408;24.626;2023-01-08T04:56:34;13.03;;;7.90;;
8312;SDS011;4194;43.408;24.626;2023-01-08T04:58:59;13.10;;;9.47;;
8312;SDS011;4194;43.408;24.626;2023-01-08T05:01:26;15.83;;;9.87;;
8312;SDS011;4194;43.408;24.626;2023-01-08T05:03:56;16.40;;;10.50;;
8312;SDS011;4194;43.408;24.626;2023-01-08T05:06:23;14.43;;;9.77;;
8312;SDS011;4194;43.408;24.626;2023-01-08T05:08:49;19.92;;;12.05;;
8312;SDS011;4194;43.408;24.626;2023-01-08T05:11:15;22.60;;;13.73;;
8312;SDS011;4194;43.408;24.626;2023-01-08T05:13:41;31.00;;;15.53;;
8312;SDS011;4194;43.408;24.626;2023-01-08T05:16:07;26.43;;;16.17;;
8312;SDS011;4194;43.408;24.626;2023-01-08T05:18:33;31.57;;;17.23;;
8312;SDS011;4194;43.408;24.626;2023-01-08T05:20:59;29.40;;;16.33;;
8312;SDS011;4194;43.408;24.626;2023-01-08T05:23:26;21.30;;;13.17;;
8312;SDS011;4194;43.408;24.626;2023-01-08T05:25:55;22.53;;;12.83;;
8312;SDS011;4194;43.408;24.626;2023-01-08T05:28:25;24.20;;;14.80;;
8312;SDS011;4194;43.408;24.626;2023-01-08T05:30:51;22.03;;;13.43;;
8312;SDS011;4194;43.408;24.626;2023-01-08T05:33:17;22.33;;;13.33;;
8312;SDS011;4194;43.408;24.626;2023-01-08T05:35:43;16.83;;;10.90;;
8312;SDS011;4194;43.408;24.626;2023-01-08T05:38:09;21.27;;;11.53;;
8312;SDS011;4194;43.408;24.626;2023-01-08T05:40:35;23.63;;;13.43;;
8312;SDS011;4194;43.408;24.626;2023-01-08T05:43:01;21.00;;;12.63;;
8312;SDS011;4194;43.408;24.626;2023-01-08T05:45:29;25.73;;;13.23;;
8312;SDS011;4194;43.408;24.626;2023-01-08T05:47:55;27.10;;;14.20;;
8312;SDS011;4194;43.408;24.626;2023-01-08T05:50:21;24.07;;;14.97;;
8312;SDS011;4194;43.408;24.626;2023-01-08T05:52:47;23.23;;;14.47;;
8312;SDS011;4194;43.408;24.626;2023-01-08T05:55:13;28.00;;;15.83;;
8312;SDS011;4194;43.408;24.626;2023-01-08T05:57:39;31.93;;;16.73;;
8312;SDS011;4194;43.408;24.626;2023-01-08T06:00:04;28.50;;;16.73;;
8312;SDS011;4194;43.408;24.626;2023-01-08T06:02:32;32.83;;;17.57;;
8312;SDS011;4194;43.408;24.626;2023-01-08T06:04:58;32.30;;;17.47;;
8312;SDS011;4194;43.408;24.626;2023-01-08T06:07:24;32.00;;;16.10;;
8312;SDS011;4194;43.408;24.626;2023-01-08T06:09:50;34.23;;;18.63;;
8312;SDS011;4194;43.408;24.626;2023-01-08T06:12:15;38.30;;;19.13;;
8312;SDS011;4194;43.408;24.626;2023-01-08T06:14:41;26.67;;;15.97;;
8312;SDS011;4194;43.408;24.626;2023-01-08T06:17:07;26.97;;;15.43;;
8312;SDS011;4194;43.408;24.626;2023-01-08T06:19:33;19.23;;;12.47;;
8312;SDS011;4194;43.408;24.626;2023-01-08T06:21:58;23.43;;;12.20;;
8312;SDS011;4194;43.408;24.626;2023-01-08T06:24:24;28.23;;;13.00;;
8312;SDS011;4194;43.408;24.626;2023-01-08T06:26:50;24.00;;;12.50;;
8312;SDS011;4194;43.408;24.626;2023-01-08T06:29:16;21.07;;;12.47;;
8312;SDS011;4194;43.408;24.626;2023-01-08T06:31:41;22.23;;;13.37;;
8312;SDS011;4194;43.408;24.626;2023-01-08T06:34:07;24.33;;;14.23;;
8312;SDS011;4194;43.408;24.626;2023-01-08T06:36:33;35.20;;;16.43;;
8312;SDS011;4194;43.408;24.626;2023-01-08T06:38:59;31.77;;;16.10;;
8312;SDS011;4194;43.408;24.626;2023-01-08T06:41:25;27.83;;;15.83;;
8312;SDS011;4194;43.408;24.626;2023-01-08T06:43:50;27.57;;;16.20;;
8312;SDS011;4194;43.408;24.626;2023-01-08T06:46:16;32.47;;;18.87;;
8312;SDS011;4194;43.408;24.626;2023-01-08T06:48:44;33.60;;;19.47;;
8312;SDS011;4194;43.408;24.626;2023-01-08T06:51:09;29.70;;;18.40;;
8312;SDS011;4194;43.408;24.626;2023-01-08T06:53:35;34.63;;;20.20;;
8312;SDS011;4194;43.408;24.626;2023-01-08T06:56:01;31.47;;;20.53;;
8312;SDS011;4194;43.408;24.626;2023-01-08T06:58:28;40.23;;;24.63;;
8312;SDS011;4194;43.408;24.626;2023-01-08T07:00:54;39.80;;;23.67;;
8312;SDS011;4194;43.408;24.626;2023-01-08T07:03:20;37.53;;;22.83;;
8312;SDS011;4194;43.408;24.626;2023-01-08T07:05:45;30.80;;;20.07;;
8312;SDS011;4194;43.408;24.626;2023-01-08T07:08:14;42.17;;;22.33;;
8312;SDS011;4194;43.408;24.626;2023-01-08T07:10:41;37.80;;;22.10;;
8312;SDS011;4194;43.408;24.626;2023-01-08T07:13:07;42.07;;;24.80;;
8312;SDS011;4194;43.408;24.626;2023-01-08T07:15:36;40.57;;;24.70;;
8312;SDS011;4194;43.408;24.626;2023-01-08T07:18:09;36.70;;;22.17;;
8312;SDS011;4194;43.408;24.626;2023-01-08T07:20:35;34.83;;;20.57;;
8312;SDS011;4194;43.408;24.626;2023-01-08T07:23:05;34.47;;;21.93;;
8312;SDS011;4194;43.408;24.626;2023-01-08T07:25:33;32.83;;;20.70;;
8312;SDS011;4194;43.408;24.626;2023-01-08T07:27:59;32.93;;;19.50;;
8312;SDS011;4194;43.408;24.626;2023-01-08T07:30:26;28.90;;;18.97;;
8312;SDS011;4194;43.408;24.626;2023-01-08T07:32:52;31.63;;;17.77;;
8312;SDS011;4194;43.408;24.626;2023-01-08T07:35:21;22.83;;;15.03;;
8312;SDS011;4194;43.408;24.626;2023-01-08T07:37:47;28.00;;;15.83;;
8312;SDS011;4194;43.408;24.626;2023-01-08T07:40:12;33.37;;;21.37;;
8312;SDS011;4194;43.408;24.626;2023-01-08T07:42:38;41.30;;;24.77;;
8312;SDS011;4194;43.408;24.626;2023-01-08T07:45:04;41.30;;;24.67;;
8312;SDS011;4194;43.408;24.626;2023-01-08T07:47:30;43.17;;;26.37;;
8312;SDS011;4194;43.408;24.626;2023-01-08T07:49:55;36.37;;;23.13;;
8312;SDS011;4194;43.408;24.626;2023-01-08T07:52:21;36.30;;;22.67;;
8312;SDS011;4194;43.408;24.626;2023-01-08T07:54:47;32.37;;;20.03;;
8312;SDS011;4194;43.408;24.626;2023-01-08T07:57:13;32.17;;;20.17;;
8312;SDS011;4194;43.408;24.626;2023-01-08T07:59:38;29.67;;;18.53;;
8312;SDS011;4194;43.408;24.626;2023-01-08T08:02:04;29.43;;;18.53;;
8312;SDS011;4194;43.408;24.626;2023-01-08T08:04:30;33.87;;;19.40;;
8312;SDS011;4194;43.408;24.626;2023-01-08T08:06:56;33.50;;;17.97;;
8312;SDS011;4194;43.408;24.626;2023-01-08T08:09:23;27.67;;;18.03;;
8312;SDS011;4194;43.408;24.626;2023-01-08T08:11:49;25.20;;;16.30;;
8312;SDS011;4194;43.408;24.626;2023-01-08T08:14:14;32.10;;;18.73;;
8312;SDS011;4194;43.408;24.626;2023-01-08T08:16:40;28.30;;;18.57;;
8312;SDS011;4194;43.408;24.626;2023-01-08T08:19:06;36.37;;;23.33;;
8312;SDS011;4194;43.408;24.626;2023-01-08T08:21:31;35.23;;;23.70;;
8312;SDS011;4194;43.408;24.626;2023-01-08T08:23:57;48.40;;;28.07;;
8312;SDS011;4194;43.408;24.626;2023-01-08T08:26:23;60.40;;;38.37;;
8312;SDS011;4194;43.408;24.626;2023-01-08T08:28:49;55.43;;;37.70;;
8312;SDS011;4194;43.408;24.626;2023-01-08T08:31:15;53.03;;;35.47;;
8312;SDS011;4194;43.408;24.626;2023-01-08T08:33:41;51.23;;;33.17;;
8312;SDS011;4194;43.408;24.626;2023-01-08T08:36:07;40.93;;;29.10;;
8312;SDS011;4194;43.408;24.626;2023-01-08T08:38:33;42.57;;;26.50;;
8312;SDS011;4194;43.408;24.626;2023-01-08T08:41:00;35.93;;;23.17;;
8312;SDS011;4194;43.408;24.626;2023-01-08T08:43:26;29.27;;;19.73;;
8312;SDS011;4194;43.408;24.626;2023-01-08T08:45:53;32.10;;;20.17;;
8312;SDS011;4194;43.408;24.626;2023-01-08T08:48:20;29.23;;;17.30;;
8312;SDS011;4194;43.408;24.626;2023-01-08T08:50:47;23.13;;;15.93;;
8312;SDS011;4194;43.408;24.626;2023-01-08T08:53:13;25.53;;;15.20;;
8312;SDS011;4194;43.408;24.626;2023-01-08T08:55:39;25.97;;;15.17;;
8312;SDS011;4194;43.408;24.626;2023-01-08T08:58:05;21.23;;;13.97;;
8312;SDS011;4194;43.408;24.626;2023-01-08T09:00:34;18.60;;;12.10;;
8312;SDS011;4194;43.408;24.626;2023-01-08T09:03:01;18.87;;;11.80;;
8312;SDS011;4194;43.408;24.626;2023-01-08T09:05:26;18.93;;;13.27;;
8312;SDS011;4194;43.408;24.626;2023-01-08T09:07:52;20.07;;;14.27;;
8312;SDS011;4194;43.408;24.626;2023-01-08T09:10:19;22.20;;;14.63;;
8312;SDS011;4194;43.408;24.626;2023-01-08T09:12:45;19.80;;;13.83;;
8312;SDS011;4194;43.408;24.626;2023-01-08T09:15:11;21.20;;;13.87;;
8312;SDS011;4194;43.408;24.626;2023-01-08T09:17:36;20.67;;;13.50;;
8312;SDS011;4194;43.408;24.626;2023-01-08T09:20:03;21.13;;;13.00;;
8312;SDS011;4194;43.408;24.626;2023-01-08T09:22:29;18.13;;;11.57;;
8312;SDS011;4194;43.408;24.626;2023-01-08T09:24:55;21.43;;;12.10;;
8312;SDS011;4194;43.408;24.626;2023-01-08T09:27:20;18.57;;;12.10;;
8312;SDS011;4194;43.408;24.626;2023-01-08T09:29:46;20.97;;;11.10;;
8312;SDS011;4194;43.408;24.626;2023-01-08T09:32:12;18.23;;;11.47;;
8312;SDS011;4194;43.408;24.626;2023-01-08T09:34:38;18.10;;;10.80;;
8312;SDS011;4194;43.408;24.626;2023-01-08T09:37:03;17.57;;;11.00;;
8312;SDS011;4194;43.408;24.626;2023-01-08T09:39:29;22.30;;;14.83;;
8312;SDS011;4194;43.408;24.626;2023-01-08T09:41:55;18.60;;;11.27;;
8312;SDS011;4194;43.408;24.626;2023-01-08T09:44:27;18.53;;;11.50;;
8312;SDS011;4194;43.408;24.626;2023-01-08T09:46:58;16.43;;;10.50;;
8312;SDS011;4194;43.408;24.626;2023-01-08T09:49:25;17.77;;;11.03;;
8312;SDS011;4194;43.408;24.626;2023-01-08T09:52:03;15.13;;;10.17;;
8312;SDS011;4194;43.408;24.626;2023-01-08T09:54:29;15.07;;;10.13;;
8312;SDS011;4194;43.408;24.626;2023-01-08T09:56:56;20.30;;;10.47;;
8312;SDS011;4194;43.408;24.626;2023-01-08T09:59:23;15.77;;;11.23;;
8312;SDS011;4194;43.408;24.626;2023-01-08T10:01:49;16.33;;;10.23;;
8312;SDS011;4194;43.408;24.626;2023-01-08T10:04:18;15.87;;;10.20;;
8312;SDS011;4194;43.408;24.626;2023-01-08T10:09:15;16.73;;;10.30;;
8312;SDS011;4194;43.408;24.626;2023-01-08T10:11:44;12.37;;;8.90;;
8312;SDS011;4194;43.408;24.626;2023-01-08T10:14:18;16.30;;;9.43;;
8312;SDS011;4194;43.408;24.626;2023-01-08T10:17:02;21.63;;;10.13;;
8312;SDS011;4194;43.408;24.626;2023-01-08T10:19:51;15.87;;;10.03;;
8312;SDS011;4194;43.408;24.626;2023-01-08T10:22:19;14.13;;;9.60;;
8312;SDS011;4194;43.408;24.626;2023-01-08T10:24:49;11.93;;;8.97;;
8312;SDS011;4194;43.408;24.626;2023-01-08T10:27:17;15.67;;;9.83;;
8312;SDS011;4194;43.408;24.626;2023-01-08T10:29:44;15.83;;;10.53;;
8312;SDS011;4194;43.408;24.626;2023-01-08T10:34:50;13.30;;;9.80;;
8312;SDS011;4194;43.408;24.626;2023-01-08T10:37:39;15.73;;;11.10;;
8312;SDS011;4194;43.408;24.626;2023-01-08T10:42:48;16.60;;;10.57;;
8312;SDS011;4194;43.408;24.626;2023-01-08T10:45:20;19.63;;;10.13;;
8312;SDS011;4194;43.408;24.626;2023-01-08T10:47:49;14.87;;;10.10;;
8312;SDS011;4194;43.408;24.626;2023-01-08T10:50:21;13.17;;;9.97;;
8312;SDS011;4194;43.408;24.626;2023-01-08T10:53:00;14.73;;;9.80;;
8312;SDS011;4194;43.408;24.626;2023-01-08T10:55:31;16.43;;;10.10;;
8312;SDS011;4194;43.408;24.626;2023-01-08T10:58:23;12.90;;;9.77;;
8312;SDS011;4194;43.408;24.626;2023-01-08T11:00:48;18.10;;;9.53;;
8312;SDS011;4194;43.408;24.626;2023-01-08T11:03:27;16.33;;;11.20;;
8312;SDS011;4194;43.408;24.626;2023-01-08T11:05:56;18.57;;;12.47;;
8312;SDS011;4194;43.408;24.626;2023-01-08T11:08:22;16.80;;;13.93;;
8312;SDS011;4194;43.408;24.626;2023-01-08T11:10:59;19.53;;;14.23;;
8312;SDS011;4194;43.408;24.626;2023-01-08T11:13:25;22.97;;;15.17;;
8312;SDS011;4194;43.408;24.626;2023-01-08T11:16:01;19.63;;;15.33;;
8312;SDS011;4194;43.408;24.626;2023-01-08T11:18:46;19.00;;;12.97;;
8312;SDS011;4194;43.408;24.626;2023-01-08T11:21:23;16.77;;;13.07;;
8312;SDS011;4194;43.408;24.626;2023-01-08T11:27:34;17.73;;;12.57;;
8312;SDS011;4194;43.408;24.626;2023-01-08T11:35:11;16.73;;;11.53;;
8312;SDS011;4194;43.408;24.626;2023-01-08T11:37:58;19.00;;;12.57;;
8312;SDS011;4194;43.408;24.626;2023-01-08T11:41:00;18.43;;;12.67;;
8312;SDS011;4194;43.408;24.626;2023-01-08T11:43:26;19.77;;;11.80;;
8312;SDS011;4194;43.408;24.626;2023-01-08T12:00:37;18.07;;;13.57;;
8312;SDS011;4194;43.408;24.626;2023-01-08T12:03:25;15.70;;;12.70;;
8312;SDS011;4194;43.408;24.626;2023-01-08T12:06:21;15.20;;;11.80;;
8312;SDS011;4194;43.408;24.626;2023-01-08T12:23:21;26.30;;;15.43;;
8312;SDS011;4194;43.408;24.626;2023-01-08T12:31:33;30.77;;;17.77;;
8312;SDS011;4194;43.408;24.626;2023-01-08T12:34:09;23.37;;;14.97;;
8312;SDS011;4194;43.408;24.626;2023-01-08T12:36:44;19.57;;;12.93;;
8312;SDS011;4194;43.408;24.626;2023-01-08T12:39:14;20.63;;;13.87;;
8312;SDS011;4194;43.408;24.626;2023-01-08T12:42:01;26.37;;;16.77;;
8312;SDS011;4194;43.408;24.626;2023-01-08T12:45:00;59.00;;;33.97;;
8312;SDS011;4194;43.408;24.626;2023-01-08T12:47:30;26.10;;;18.40;;
8312;SDS011;4194;43.408;24.626;2023-01-08T12:52:38;20.83;;;15.67;;
8312;SDS011;4194;43.408;24.626;2023-01-08T12:57:51;21.70;;;14.97;;
8312;SDS011;4194;43.408;24.626;2023-01-08T13:00:46;21.00;;;15.00;;
8312;SDS011;4194;43.408;24.626;2023-01-08T13:03:21;22.50;;;15.43;;
8312;SDS011;4194;43.408;24.626;2023-01-08T13:05:52;22.13;;;15.93;;
8312;SDS011;4194;43.408;24.626;2023-01-08T13:08:32;22.27;;;16.67;;
8312;SDS011;4194;43.408;24.626;2023-01-08T13:11:02;21.57;;;15.90;;
8312;SDS011;4194;43.408;24.626;2023-01-08T13:18:54;29.63;;;18.73;;
8312;SDS011;4194;43.408;24.626;2023-01-08T13:21:34;30.47;;;20.80;;
8312;SDS011;4194;43.408;24.626;2023-01-08T13:24:18;27.63;;;18.33;;
8312;SDS011;4194;43.408;24.626;2023-01-08T13:26:53;26.63;;;17.03;;
8312;SDS011;4194;43.408;24.626;2023-01-08T13:29:53;26.33;;;19.10;;
8312;SDS011;4194;43.408;24.626;2023-01-08T13:37:41;28.63;;;17.93;;
8312;SDS011;4194;43.408;24.626;2023-01-08T13:48:46;29.27;;;19.20;;
8312;SDS011;4194;43.408;24.626;2023-01-08T13:51:29;29.83;;;19.60;;
8312;SDS011;4194;43.408;24.626;2023-01-08T13:53:55;27.93;;;18.47;;
8312;SDS011;4194;43.408;24.626;2023-01-08T13:56:26;27.00;;;18.07;;
8312;SDS011;4194;43.408;24.626;2023-01-08T13:58:54;26.07;;;18.00;;
8312;SDS011;4194;43.408;24.626;2023-01-08T14:01:20;29.73;;;21.30;;
8312;SDS011;4194;43.408;24.626;2023-01-08T14:03:47;28.70;;;19.50;;
8312;SDS011;4194;43.408;24.626;2023-01-08T14:06:22;30.13;;;19.87;;
8312;SDS011;4194;43.408;24.626;2023-01-08T14:11:16;29.10;;;20.47;;
8312;SDS011;4194;43.408;24.626;2023-01-08T14:13:44;29.27;;;19.90;;
8312;SDS011;4194;43.408;24.626;2023-01-08T14:16:12;32.87;;;20.70;;
8312;SDS011;4194;43.408;24.626;2023-01-08T14:18:39;33.63;;;21.13;;
8312;SDS011;4194;43.408;24.626;2023-01-08T14:21:06;30.40;;;20.83;;
8312;SDS011;4194;43.408;24.626;2023-01-08T14:23:36;33.00;;;21.17;;
8312;SDS011;4194;43.408;24.626;2023-01-08T14:26:05;31.30;;;21.70;;
8312;SDS011;4194;43.408;24.626;2023-01-08T14:28:32;34.63;;;21.27;;
8312;SDS011;4194;43.408;24.626;2023-01-08T14:30:59;31.70;;;21.07;;
8312;SDS011;4194;43.408;24.626;2023-01-08T14:33:29;31.57;;;21.03;;
8312;SDS011;4194;43.408;24.626;2023-01-08T14:35:59;37.33;;;20.77;;
8312;SDS011;4194;43.408;24.626;2023-01-08T14:38:26;33.47;;;22.37;;
8312;SDS011;4194;43.408;24.626;2023-01-08T14:41:02;33.37;;;21.23;;
8312;SDS011;4194;43.408;24.626;2023-01-08T14:43:33;32.90;;;20.53;;
8312;SDS011;4194;43.408;24.626;2023-01-08T14:46:03;36.13;;;21.80;;
8312;SDS011;4194;43.408;24.626;2023-01-08T14:48:38;37.87;;;23.20;;
8312;SDS011;4194;43.408;24.626;2023-01-08T14:51:09;36.27;;;22.23;;
8312;SDS011;4194;43.408;24.626;2023-01-08T14:53:41;36.57;;;22.13;;
8312;SDS011;4194;43.408;24.626;2023-01-08T14:56:14;32.93;;;21.23;;
8312;SDS011;4194;43.408;24.626;2023-01-08T14:58:46;33.43;;;21.37;;
8312;SDS011;4194;43.408;24.626;2023-01-08T15:01:14;32.57;;;21.37;;
8312;SDS011;4194;43.408;24.626;2023-01-08T15:03:49;34.40;;;21.43;;
8312;SDS011;4194;43.408;24.626;2023-01-08T15:06:26;33.33;;;20.87;;
8312;SDS011;4194;43.408;24.626;2023-01-08T15:08:54;33.70;;;21.73;;
8312;SDS011;4194;43.408;24.626;2023-01-08T15:14:12;34.07;;;21.47;;
8312;SDS011;4194;43.408;24.626;2023-01-08T15:16:38;41.13;;;23.30;;
8312;SDS011;4194;43.408;24.626;2023-01-08T15:19:09;37.87;;;23.87;;
8312;SDS011;4194;43.408;24.626;2023-01-08T15:21:44;36.63;;;22.93;;
8312;SDS011;4194;43.408;24.626;2023-01-08T15:24:44;43.27;;;26.17;;
8312;SDS011;4194;43.408;24.626;2023-01-08T15:27:03;46.90;;;27.17;;
8312;SDS011;4194;43.408;24.626;2023-01-08T15:29:45;48.33;;;26.80;;
8312;SDS011;4194;43.408;24.626;2023-01-08T15:34:43;45.80;;;27.10;;
8312;SDS011;4194;43.408;24.626;2023-01-08T15:37:10;50.13;;;27.90;;
8312;SDS011;4194;43.408;24.626;2023-01-08T15:39:36;60.60;;;32.93;;
8312;SDS011;4194;43.408;24.626;2023-01-08T15:45:08;52.37;;;31.50;;
8312;SDS011;4194;43.408;24.626;2023-01-08T15:47:39;53.77;;;30.73;;
8312;SDS011;4194;43.408;24.626;2023-01-08T15:50:05;52.10;;;30.83;;
8312;SDS011;4194;43.408;24.626;2023-01-08T15:52:31;54.43;;;31.37;;
8312;SDS011;4194;43.408;24.626;2023-01-08T15:54:58;57.07;;;31.07;;
8312;SDS011;4194;43.408;24.626;2023-01-08T15:57:25;54.73;;;32.23;;
8312;SDS011;4194;43.408;24.626;2023-01-08T15:59:54;56.17;;;31.70;;
8312;SDS011;4194;43.408;24.626;2023-01-08T16:02:20;51.53;;;30.87;;
8312;SDS011;4194;43.408;24.626;2023-01-08T16:04:53;48.73;;;30.03;;
8312;SDS011;4194;43.408;24.626;2023-01-08T16:07:20;49.53;;;30.57;;
8312;SDS011;4194;43.408;24.626;2023-01-08T16:09:46;48.60;;;29.50;;
8312;SDS011;4194;43.408;24.626;2023-01-08T16:12:12;55.60;;;32.13;;
8312;SDS011;4194;43.408;24.626;2023-01-08T16:14:38;58.57;;;32.40;;
8312;SDS011;4194;43.408;24.626;2023-01-08T16:17:04;69.20;;;35.27;;
8312;SDS011;4194;43.408;24.626;2023-01-08T16:19:30;72.43;;;34.53;;
8312;SDS011;4194;43.408;24.626;2023-01-08T16:21:56;62.63;;;35.67;;
8312;SDS011;4194;43.408;24.626;2023-01-08T16:24:23;60.93;;;35.73;;
8312;SDS011;4194;43.408;24.626;2023-01-08T16:26:49;66.03;;;36.43;;